ایروان, ارمنستان

02:05 PM +04 on مارس 28, 2017 (GMT +0400)
Zvartnots | | Change Station

Elev 2838 ft 40.15 °N, 44.40 °E | Updated 35 minutes ago

بیشتر ابری
بیشتر ابری
50 °F
Feels Like 50 °F
N
16
باد متغير باد from جنوب غربی

امروز
High -- | Low -- °F
--% Chance of Precip.
دیروز
High -- | Low -- °F
Precip. -- در
فشار 29.98 در
ديد 6.2 مايل، ميل (در برابر كيلومتر
ابری ابرهای پراکنده 4000 ft
قطره شبنم 28 °F
رطوبت 43%
بارش باران 0.00 در
برف عمیق Not available.
6:51 AM 7:21 PM
ماه جدید, 0% visible
METAR UDYZ 280930Z 23014KT 9999 SCT040CB 10/M02 Q1015 R27/0///70 NOSIG
فشار 29.98 در
ديد 6.2 مايل، ميل (در برابر كيلومتر
ابری ابرهای پراکنده 4000 ft
قطره شبنم 28 °F
رطوبت 43%
بارش باران 0.00 در
برف عمیق Not available.
6:51 AM 7:21 PM
ماه جدید, 0% visible
METAR UDYZ 280930Z 23014KT 9999 SCT040CB 10/M02 Q1015 R27/0///70 NOSIG

Get Severe Weather Alerts

Thanks for signing up!

Be on the lookout for a verification email in your inbox.

You'll start receiving the daily forecast at 8 AM.

×

10-Day Weather Forecast

×

Almanac

ستاره شناسی

Mar. 28, 2017 Rise Set
وقت حقیقی
تاریک و روشن اجتماعی
تاریک روشن دریایی
شفق و فلق نجومی
ماه
میزان روشنایی روز
طول روز
Tomorrow will be .
, % of the Moon is Illuminated

Today's Extremes

Country Highs Country Lows

Community

WunderPhotos

Upload Photos

1,962,540 photos uploaded!

WunderBlog® & News

Nearby

تمیزی هوا

  تمیزی هوا AQ Index آلاینده
Not available.

عمق برف

Station Depth Elevation

Earthquake Activity

شهر Distance Mag. Time & Date
Minimum magnitude displayed is 2.5.

Earthquake Activity

شهر Distance Mag. Time & Date
Minimum magnitude displayed is 2.5.

Coastal Water Temperatures

منطقه درجه حرارت

Stations

Nearby Weather Stations

Station Location دما باد سرد قطره شبنم رطوبت باد Precip. Elev ارتقا دادن Type